createdAt,value
2022-12-06T00:00:38.681Z,6.62
2022-12-06T00:05:44.698Z,6.60
2022-12-06T00:10:47.963Z,6.54
2022-12-06T00:15:49.783Z,6.53
2022-12-06T00:20:51.641Z,6.58
2022-12-06T00:25:53.493Z,6.60
2022-12-06T00:31:00.363Z,6.64
2022-12-06T00:36:08.283Z,6.61
2022-12-06T00:41:13.647Z,6.70
2022-12-06T00:46:18.747Z,6.69
2022-12-06T00:51:22.005Z,6.72
2022-12-06T00:56:23.936Z,6.70
2022-12-06T01:01:28.832Z,6.64
2022-12-06T01:06:33.371Z,6.55
2022-12-06T01:11:35.351Z,6.48
2022-12-06T01:16:37.278Z,6.57
2022-12-06T01:21:39.179Z,6.54
2022-12-06T01:26:41.047Z,6.49
2022-12-06T01:31:42.973Z,6.49
2022-12-06T01:36:45.213Z,6.44
2022-12-06T01:41:57.348Z,6.55
2022-12-06T01:46:59.416Z,6.47
2022-12-06T01:52:09.802Z,6.56
2022-12-06T01:57:15.649Z,6.35
2022-12-06T02:02:17.625Z,6.25
2022-12-06T02:07:22.337Z,6.18
2022-12-06T02:12:24.151Z,6.19
2022-12-06T02:17:54.322Z,6.21
2022-12-06T02:23:11.266Z,6.20
2022-12-06T02:28:31.589Z,6.18
2022-12-06T02:33:46.935Z,6.09
2022-12-06T02:38:54.034Z,6.18
2022-12-06T02:44:00.012Z,6.29
2022-12-06T02:49:04.822Z,6.31
2022-12-06T02:54:10.124Z,6.33
2022-12-06T02:59:11.947Z,6.29
2022-12-06T03:04:49.644Z,6.27
2022-12-06T03:10:28.745Z,6.25
2022-12-06T03:15:42.339Z,6.19
2022-12-06T03:20:58.925Z,6.05
2022-12-06T03:26:03.225Z,6.12
2022-12-06T03:31:10.864Z,6.11
2022-12-06T03:36:14.536Z,6.20
2022-12-06T03:41:18.717Z,6.21
2022-12-06T03:46:27.999Z,6.17
2022-12-06T03:51:32.664Z,6.18
2022-12-06T03:56:36.926Z,6.16
2022-12-06T04:01:39.941Z,6.24
2022-12-06T04:06:41.836Z,6.23
2022-12-06T04:11:43.671Z,6.08
2022-12-06T04:17:03.787Z,6.15
2022-12-06T04:22:24.508Z,6.10
2022-12-06T04:27:44.663Z,5.93
2022-12-06T04:33:05.240Z,5.88
2022-12-06T04:38:25.855Z,5.89
2022-12-06T04:43:42.985Z,5.92
2022-12-06T04:48:44.789Z,5.90
2022-12-06T04:53:46.603Z,5.84
2022-12-06T04:58:48.418Z,5.92
2022-12-06T05:03:50.334Z,5.92
2022-12-06T05:08:52.423Z,5.94
2022-12-06T05:13:54.317Z,5.81
2022-12-06T05:18:56.161Z,5.70
2022-12-06T05:23:58.700Z,5.66
2022-12-06T05:29:00.586Z,5.65
2022-12-06T05:34:02.422Z,5.56
2022-12-06T05:39:04.394Z,5.51
2022-12-06T05:44:06.226Z,5.52
2022-12-06T05:49:08.088Z,5.65
2022-12-06T05:54:10.083Z,5.60
2022-12-06T05:59:11.996Z,5.49
2022-12-06T06:04:13.789Z,5.54
2022-12-06T06:09:15.567Z,5.60
2022-12-06T06:14:17.422Z,5.64
2022-12-06T06:19:19.411Z,5.66
2022-12-06T06:24:21.246Z,5.72
2022-12-06T06:29:23.254Z,5.79
2022-12-06T06:34:26.003Z,5.77
2022-12-06T06:39:27.879Z,5.77
2022-12-06T06:44:29.687Z,5.89
2022-12-06T06:49:31.910Z,5.92
2022-12-06T06:54:33.733Z,5.82
2022-12-06T06:59:35.575Z,5.72
2022-12-06T07:04:37.440Z,5.75
2022-12-06T07:09:40.155Z,5.78
2022-12-06T07:14:42.033Z,5.84
2022-12-06T07:19:43.831Z,5.92
2022-12-06T07:24:52.079Z,5.96
2022-12-06T07:29:54.299Z,5.99
2022-12-06T07:34:56.117Z,5.91
2022-12-06T07:39:58.237Z,5.79
2022-12-06T07:45:04.613Z,5.67
2022-12-06T07:50:17.600Z,5.70
2022-12-06T07:55:20.365Z,5.64
2022-12-06T08:00:22.262Z,5.72
2022-12-06T08:05:24.112Z,5.62
2022-12-06T08:10:25.902Z,5.52
2022-12-06T08:15:27.721Z,5.41
2022-12-06T08:20:29.612Z,5.31
2022-12-06T08:25:31.448Z,5.28
2022-12-06T08:30:33.643Z,5.24
2022-12-06T08:35:38.380Z,5.23
2022-12-06T08:40:40.255Z,5.27
2022-12-06T08:45:42.136Z,5.27
2022-12-06T08:50:44.081Z,5.22
2022-12-06T08:56:01.889Z,5.24
2022-12-06T09:01:19.584Z,5.39
2022-12-06T09:06:22.243Z,5.54
2022-12-06T09:11:25.595Z,5.60
2022-12-06T09:16:27.659Z,5.76
2022-12-06T09:21:30.716Z,5.80
2022-12-06T09:26:32.719Z,5.79
2022-12-06T09:31:36.025Z,5.77
2022-12-06T09:36:44.216Z,5.91
2022-12-06T09:42:12.470Z,5.98
2022-12-06T09:47:42.442Z,5.87
2022-12-06T09:52:59.932Z,5.87
2022-12-06T09:58:16.813Z,5.87
2022-12-06T10:03:29.774Z,5.78
2022-12-06T10:08:56.121Z,5.89
2022-12-06T10:14:21.496Z,5.92
2022-12-06T10:19:53.957Z,5.93
2022-12-06T10:25:31.743Z,6.05
2022-12-06T10:30:40.566Z,6.05
2022-12-06T10:36:03.442Z,5.85
2022-12-06T10:41:21.510Z,5.75
2022-12-06T10:47:03.814Z,5.80
2022-12-06T10:52:39.599Z,5.75
2022-12-06T10:57:44.884Z,5.62
2022-12-06T11:03:08.271Z,5.53
2022-12-06T11:08:21.854Z,5.47
2022-12-06T11:13:34.438Z,5.54
2022-12-06T11:18:38.180Z,5.56
2022-12-06T11:24:06.779Z,5.53
2022-12-06T11:29:14.273Z,5.58
2022-12-06T11:34:22.840Z,5.49
2022-12-06T11:39:24.893Z,5.48
2022-12-06T11:44:36.337Z,5.47
2022-12-06T11:49:41.745Z,5.32
2022-12-06T11:54:55.098Z,5.24
2022-12-06T12:00:20.675Z,5.02
2022-12-06T12:05:34.353Z,5.05
2022-12-06T12:10:44.309Z,5.07
2022-12-06T12:15:53.247Z,5.10
2022-12-06T12:20:57.705Z,5.16
2022-12-06T12:26:05.142Z,5.31
2022-12-06T12:31:22.365Z,5.39
2022-12-06T12:36:29.269Z,5.46
2022-12-06T12:41:45.795Z,5.39
2022-12-06T12:47:02.594Z,5.33
2022-12-06T12:52:29.411Z,5.25
2022-12-06T12:57:31.516Z,5.12
2022-12-06T13:02:36.305Z,5.12
2022-12-06T13:07:42.377Z,5.10
2022-12-06T13:12:50.414Z,5.13
2022-12-06T13:17:59.953Z,5.12
2022-12-06T13:23:08.585Z,5.04
2022-12-06T13:28:19.000Z,5.04
2022-12-06T13:33:28.015Z,5.00
2022-12-06T13:38:32.622Z,5.02
2022-12-06T13:43:39.572Z,5.10
2022-12-06T13:49:01.621Z,4.99
2022-12-06T13:54:06.458Z,5.06
2022-12-06T13:59:11.276Z,5.02
2022-12-06T14:09:44.964Z,5.15
2022-12-06T14:15:01.643Z,5.18
2022-12-06T14:20:26.390Z,5.09
2022-12-06T14:25:31.594Z,5.05
2022-12-06T14:30:33.949Z,4.94
2022-12-06T14:35:36.849Z,4.95
2022-12-06T14:41:00.980Z,5.02
2022-12-06T14:46:06.554Z,4.92
2022-12-06T14:51:23.213Z,4.80
2022-12-06T14:56:30.389Z,4.66
2022-12-06T15:01:32.366Z,4.62
2022-12-06T15:06:36.532Z,4.71
2022-12-06T15:11:59.841Z,4.80
2022-12-06T15:17:02.992Z,4.71
2022-12-06T15:22:18.744Z,4.50
2022-12-06T15:27:26.753Z,4.49
2022-12-06T15:32:28.629Z,4.28
2022-12-06T15:37:38.855Z,4.25
2022-12-06T15:42:42.081Z,4.31
2022-12-06T15:47:45.065Z,4.36
2022-12-06T15:52:46.878Z,4.46
2022-12-06T15:57:48.747Z,4.54
2022-12-06T16:02:50.618Z,4.50
2022-12-06T16:07:52.546Z,4.37
2022-12-06T16:13:12.889Z,4.42
2022-12-06T16:18:14.907Z,4.26
2022-12-06T16:24:11.435Z,4.19
2022-12-06T16:29:01.008Z,4.05
2022-12-06T16:34:02.868Z,4.06
2022-12-06T16:39:06.680Z,4.07
2022-12-06T16:44:08.562Z,4.10
2022-12-06T16:54:44.929Z,4.14
2022-12-06T16:59:47.363Z,4.05
2022-12-06T17:04:49.159Z,4.08
2022-12-06T17:09:50.998Z,4.02
2022-12-06T17:14:54.486Z,4.00
2022-12-06T17:19:56.509Z,4.09
2022-12-06T17:24:59.954Z,4.26
2022-12-06T17:30:02.094Z,4.26
2022-12-06T17:35:04.473Z,4.28
2022-12-06T17:40:07.684Z,4.25
2022-12-06T17:45:09.999Z,4.22
2022-12-06T17:50:12.030Z,4.13
2022-12-06T17:55:14.801Z,4.00
2022-12-06T18:00:17.139Z,4.03
2022-12-06T18:05:19.124Z,4.01
2022-12-06T18:10:21.138Z,4.02
2022-12-06T18:15:38.432Z,4.00
2022-12-06T18:20:41.296Z,3.91
2022-12-06T18:25:44.035Z,3.92
2022-12-06T18:30:46.040Z,3.99
2022-12-06T18:35:50.340Z,3.94
2022-12-06T18:40:52.414Z,3.87
2022-12-06T18:46:01.354Z,3.85
2022-12-06T18:51:11.169Z,3.81
2022-12-06T18:56:14.826Z,3.82
2022-12-06T19:01:21.987Z,3.82
2022-12-06T19:06:26.496Z,3.88
2022-12-06T19:11:28.793Z,3.79
2022-12-06T19:16:36.507Z,3.69
2022-12-06T19:21:38.604Z,3.67
2022-12-06T19:26:40.513Z,3.59
2022-12-06T19:31:42.794Z,3.59
2022-12-06T19:36:45.236Z,3.58
2022-12-06T19:42:06.231Z,3.73
2022-12-06T19:47:08.179Z,3.77
2022-12-06T19:52:10.188Z,3.76
2022-12-06T19:57:12.015Z,3.61
2022-12-06T20:02:14.053Z,3.66
2022-12-06T20:07:16.011Z,3.67
2022-12-06T20:12:17.857Z,3.65
2022-12-06T20:17:23.673Z,3.75
2022-12-06T20:22:25.694Z,3.76
2022-12-06T20:27:46.189Z,3.78
2022-12-06T20:32:49.352Z,3.74
2022-12-06T20:37:51.556Z,3.72
2022-12-06T20:42:53.376Z,3.64
2022-12-06T20:47:55.202Z,3.64
2022-12-06T20:52:57.018Z,3.61
2022-12-06T20:57:58.960Z,3.65
2022-12-06T21:03:00.933Z,3.57
2022-12-06T21:08:02.888Z,3.48
2022-12-06T21:13:06.265Z,3.60
2022-12-06T21:18:08.249Z,3.58
2022-12-06T21:23:10.092Z,3.61
2022-12-06T21:28:12.071Z,3.60
2022-12-06T21:33:13.889Z,3.62
2022-12-06T21:38:16.987Z,3.73
2022-12-06T21:43:18.827Z,3.73
2022-12-06T21:48:20.666Z,3.72
2022-12-06T21:53:22.507Z,3.73
2022-12-06T21:58:24.581Z,3.83
2022-12-06T22:03:26.476Z,3.89
2022-12-06T22:08:28.291Z,3.89
2022-12-06T22:13:30.208Z,3.90
2022-12-06T22:18:32.586Z,3.95
2022-12-06T22:23:34.761Z,3.79
2022-12-06T22:28:36.735Z,3.86
2022-12-06T22:33:39.086Z,3.86
2022-12-06T22:38:41.061Z,3.85
2022-12-06T22:43:43.195Z,3.79
2022-12-06T22:48:45.564Z,3.90
2022-12-06T22:53:52.136Z,3.83
2022-12-06T22:58:55.584Z,3.77
2022-12-06T23:04:00.129Z,3.83
2022-12-06T23:09:02.659Z,3.94
2022-12-06T23:14:04.767Z,3.86
2022-12-06T23:19:06.615Z,3.75
2022-12-06T23:24:11.936Z,3.74
2022-12-06T23:29:15.737Z,3.71
2022-12-06T23:34:22.592Z,3.83
2022-12-06T23:39:24.720Z,3.96
2022-12-06T23:44:26.490Z,4.03
2022-12-06T23:49:28.331Z,4.11
2022-12-06T23:54:30.090Z,4.06
2022-12-06T23:59:31.944Z,4.04
